Scroll down
FLIGHT INFORMATION
Singapore Airlines Cargo

SIA9340

At Arrival Gate

KPAE
 KORD
DATE: 2018-12-31
GATE:  -
GATE DEPARTURE: 16:42
TAKEOFF: 16:52
DATE: 2018-12-31
GATE:  -
LANDING: 20:13
GATE ARRIVAL: 20:21
FLIGHT DATA
Crew: 
Speed: 
925 kph
Altitude: 
37,024 ft
Stage Length: 
2,759.8 km
Block Time: 
3.5 hrs
Flight Time: 
3.3 hrs
Fuel Used: 
33,513 kg
Cleared Route: PAE SEA VAMPS BANDR BEEZR ELN ICEBE ZAXUL FINUT TUFFY UPUGE HEXOL TOUGH JELRO KEKPE UFFDA HSTIN ZZIPR WELCM TEEOO MITEE BHAWK STNLE CUUPP CHMPN CLSBY FYTTE MOTRR COGSS MADII SOOLU KURKK VULCN HIMGO
TRACK DATA
50,000 ft 1,000 kts
AIRCRAFT INFO AND CUMULATIVE STATS
Aircraft Type: 
B748F
Registration: 
SELCAL: 
MSN/LN: 
0 / 1
Total Flights: 
1
Total Block Time: 
3.5 hrs
Total Flight Time: 
3.3 hrs
Total Fuel Used: 
33,513 kg
DATALINK LOG | Newest first | Current as of: 2021-09-20 17:52:07
LABEL SEQUENCE CONTENT Dn/Up
QD213420:21 29.9▼ Dn
QC132620:13▼ Dn
GA1214ADVANCED GATE ASSIGNMENTS NOT YET AVAILABLE AT THIS AIRPORT▲ Up
GR4545KORD 20:04 MAAS YP/UM WCHR/S/C ▼ Dn
2U4344KORD 311951Z 03010KT 6SM -RA BR OVC004 03/03 A2956 RMK AO2 PRESRR SLP017 P0006 T00330033▲ Up
2S4344KORD▼ Dn
QB524716:52▼ Dn
QA423616:42 104.1▼ Dn
2U2821KPAE 311553Z 07005KT 10SM BCFG CLR 00/M01 A3044 RMK AO2 SLP313 T00001011▲ Up
2S2821KPAE▼ Dn


AIRCRAFT HISTORY
FLIGHT DATE FLIGHT NO. ORIGIN DESTINATION CLEARED ROUTE BLOCK TIME FLIGHT TIME FUEL USED PILOT
2018-12-31SIA9340KPAE KORD PAE SEA VAMPS BANDR BEEZR ELN ICEBE ZAXUL FINUT TUFFY UPUGE HEXOL TOUGH JELRO KEKPE UFFDA HSTIN ZZIPR WELCM TEEOO MITEE BHAWK STNLE CUUPP CHMPN CLSBY FYTTE MOTRR COGSS MADII SOOLU KURKK VULCN HIMGO3.5 hrs3.3 hrs73,883 lbTom Landry